sensor_id;sensor_type;location;lat;lon;timestamp;P1;durP1;ratioP1;P2;durP2;ratioP2
79308;SDS011;68767;53.078;7.386;2024-01-07T00:01:28;15.98;;;6.50;;
79308;SDS011;68767;53.078;7.386;2024-01-07T00:03:55;15.45;;;7.00;;
79308;SDS011;68767;53.078;7.386;2024-01-07T00:06:22;15.90;;;7.05;;
79308;SDS011;68767;53.078;7.386;2024-01-07T00:08:49;12.77;;;6.35;;
79308;SDS011;68767;53.078;7.386;2024-01-07T00:11:16;12.75;;;5.90;;
79308;SDS011;68767;53.078;7.386;2024-01-07T00:13:44;19.35;;;6.28;;
79308;SDS011;68767;53.078;7.386;2024-01-07T00:16:12;16.63;;;7.53;;
79308;SDS011;68767;53.078;7.386;2024-01-07T00:18:38;16.77;;;7.72;;
79308;SDS011;68767;53.078;7.386;2024-01-07T00:21:06;15.77;;;7.43;;
79308;SDS011;68767;53.078;7.386;2024-01-07T00:23:33;15.80;;;7.85;;
79308;SDS011;68767;53.078;7.386;2024-01-07T00:26:00;14.23;;;7.20;;
79308;SDS011;68767;53.078;7.386;2024-01-07T00:28:28;13.55;;;6.13;;
79308;SDS011;68767;53.078;7.386;2024-01-07T00:30:55;13.75;;;5.72;;
79308;SDS011;68767;53.078;7.386;2024-01-07T00:33:22;14.15;;;6.93;;
79308;SDS011;68767;53.078;7.386;2024-01-07T00:35:51;11.68;;;5.95;;
79308;SDS011;68767;53.078;7.386;2024-01-07T00:38:18;15.73;;;6.10;;
79308;SDS011;68767;53.078;7.386;2024-01-07T00:40:44;17.67;;;6.90;;
79308;SDS011;68767;53.078;7.386;2024-01-07T00:43:11;15.07;;;6.75;;
79308;SDS011;68767;53.078;7.386;2024-01-07T00:45:38;15.23;;;6.70;;
79308;SDS011;68767;53.078;7.386;2024-01-07T00:48:05;13.07;;;5.53;;
79308;SDS011;68767;53.078;7.386;2024-01-07T00:50:33;15.80;;;7.25;;
79308;SDS011;68767;53.078;7.386;2024-01-07T00:53:00;12.80;;;6.35;;
79308;SDS011;68767;53.078;7.386;2024-01-07T00:55:27;16.35;;;6.57;;
79308;SDS011;68767;53.078;7.386;2024-01-07T00:57:54;16.80;;;6.97;;
79308;SDS011;68767;53.078;7.386;2024-01-07T01:00:21;12.88;;;6.05;;
79308;SDS011;68767;53.078;7.386;2024-01-07T01:02:49;17.33;;;7.32;;
79308;SDS011;68767;53.078;7.386;2024-01-07T01:05:15;10.93;;;4.70;;
79308;SDS011;68767;53.078;7.386;2024-01-07T01:07:43;14.20;;;6.97;;
79308;SDS011;68767;53.078;7.386;2024-01-07T01:10:10;16.27;;;5.72;;
79308;SDS011;68767;53.078;7.386;2024-01-07T01:12:37;13.70;;;6.28;;
79308;SDS011;68767;53.078;7.386;2024-01-07T01:15:04;15.43;;;6.38;;
79308;SDS011;68767;53.078;7.386;2024-01-07T01:17:31;11.52;;;5.60;;
79308;SDS011;68767;53.078;7.386;2024-01-07T01:19:58;10.65;;;4.95;;
79308;SDS011;68767;53.078;7.386;2024-01-07T01:22:25;19.02;;;6.70;;
79308;SDS011;68767;53.078;7.386;2024-01-07T01:24:52;16.63;;;6.13;;
79308;SDS011;68767;53.078;7.386;2024-01-07T01:27:20;18.73;;;5.35;;
79308;SDS011;68767;53.078;7.386;2024-01-07T01:29:47;18.83;;;5.65;;
79308;SDS011;68767;53.078;7.386;2024-01-07T01:32:14;9.77;;;4.60;;
79308;SDS011;68767;53.078;7.386;2024-01-07T01:34:41;10.93;;;4.85;;
79308;SDS011;68767;53.078;7.386;2024-01-07T01:37:08;13.50;;;6.47;;
79308;SDS011;68767;53.078;7.386;2024-01-07T01:39:38;15.38;;;6.20;;
79308;SDS011;68767;53.078;7.386;2024-01-07T01:42:07;18.25;;;5.45;;
79308;SDS011;68767;53.078;7.386;2024-01-07T01:44:34;11.70;;;5.60;;
79308;SDS011;68767;53.078;7.386;2024-01-07T01:47:01;13.75;;;6.55;;
79308;SDS011;68767;53.078;7.386;2024-01-07T01:49:28;11.68;;;4.97;;
79308;SDS011;68767;53.078;7.386;2024-01-07T01:51:56;10.18;;;5.10;;
79308;SDS011;68767;53.078;7.386;2024-01-07T01:54:23;13.80;;;6.00;;
79308;SDS011;68767;53.078;7.386;2024-01-07T01:56:50;12.60;;;5.95;;
79308;SDS011;68767;53.078;7.386;2024-01-07T01:59:18;14.90;;;6.43;;
79308;SDS011;68767;53.078;7.386;2024-01-07T02:01:45;12.10;;;5.60;;
79308;SDS011;68767;53.078;7.386;2024-01-07T02:04:13;12.00;;;5.05;;
79308;SDS011;68767;53.078;7.386;2024-01-07T02:06:42;11.43;;;5.53;;
79308;SDS011;68767;53.078;7.386;2024-01-07T02:09:11;9.93;;;3.80;;
79308;SDS011;68767;53.078;7.386;2024-01-07T02:11:38;11.25;;;4.68;;
79308;SDS011;68767;53.078;7.386;2024-01-07T02:14:05;11.25;;;5.22;;
79308;SDS011;68767;53.078;7.386;2024-01-07T02:16:32;10.63;;;4.85;;
79308;SDS011;68767;53.078;7.386;2024-01-07T02:18:59;14.52;;;5.30;;
79308;SDS011;68767;53.078;7.386;2024-01-07T02:21:30;8.32;;;4.88;;
79308;SDS011;68767;53.078;7.386;2024-01-07T02:23:56;7.40;;;3.60;;
79308;SDS011;68767;53.078;7.386;2024-01-07T02:26:24;8.23;;;4.50;;
79308;SDS011;68767;53.078;7.386;2024-01-07T02:28:50;12.15;;;5.30;;
79308;SDS011;68767;53.078;7.386;2024-01-07T02:31:18;10.93;;;4.75;;
79308;SDS011;68767;53.078;7.386;2024-01-07T02:33:45;9.85;;;4.88;;
79308;SDS011;68767;53.078;7.386;2024-01-07T02:36:15;11.55;;;5.32;;
79308;SDS011;68767;53.078;7.386;2024-01-07T02:38:42;13.00;;;5.10;;
79308;SDS011;68767;53.078;7.386;2024-01-07T02:41:09;8.95;;;3.55;;
79308;SDS011;68767;53.078;7.386;2024-01-07T02:43:36;9.63;;;4.57;;
79308;SDS011;68767;53.078;7.386;2024-01-07T02:46:05;8.23;;;4.03;;
79308;SDS011;68767;53.078;7.386;2024-01-07T02:48:31;7.82;;;3.55;;
79308;SDS011;68767;53.078;7.386;2024-01-07T02:50:59;9.43;;;3.70;;
79308;SDS011;68767;53.078;7.386;2024-01-07T02:53:27;8.60;;;3.67;;
79308;SDS011;68767;53.078;7.386;2024-01-07T02:55:54;10.13;;;4.53;;
79308;SDS011;68767;53.078;7.386;2024-01-07T02:58:21;7.97;;;3.58;;
79308;SDS011;68767;53.078;7.386;2024-01-07T03:00:48;10.15;;;4.63;;
79308;SDS011;68767;53.078;7.386;2024-01-07T03:03:15;7.70;;;4.00;;
79308;SDS011;68767;53.078;7.386;2024-01-07T03:05:42;6.90;;;3.25;;
79308;SDS011;68767;53.078;7.386;2024-01-07T03:08:09;9.35;;;4.47;;
79308;SDS011;68767;53.078;7.386;2024-01-07T03:10:36;7.57;;;3.92;;
79308;SDS011;68767;53.078;7.386;2024-01-07T03:13:03;7.15;;;3.47;;
79308;SDS011;68767;53.078;7.386;2024-01-07T03:15:30;9.02;;;3.83;;
79308;SDS011;68767;53.078;7.386;2024-01-07T03:17:57;12.02;;;3.97;;
79308;SDS011;68767;53.078;7.386;2024-01-07T03:20:24;7.80;;;3.70;;
79308;SDS011;68767;53.078;7.386;2024-01-07T03:22:51;5.38;;;2.67;;
79308;SDS011;68767;53.078;7.386;2024-01-07T03:25:19;7.60;;;3.13;;
79308;SDS011;68767;53.078;7.386;2024-01-07T03:27:46;6.00;;;2.85;;
79308;SDS011;68767;53.078;7.386;2024-01-07T03:30:13;10.60;;;4.40;;
79308;SDS011;68767;53.078;7.386;2024-01-07T03:32:40;9.10;;;3.58;;
79308;SDS011;68767;53.078;7.386;2024-01-07T03:35:07;5.97;;;3.15;;
79308;SDS011;68767;53.078;7.386;2024-01-07T03:37:35;5.45;;;2.75;;
79308;SDS011;68767;53.078;7.386;2024-01-07T03:40:02;8.30;;;3.80;;
79308;SDS011;68767;53.078;7.386;2024-01-07T03:42:29;6.78;;;3.25;;
79308;SDS011;68767;53.078;7.386;2024-01-07T03:44:56;6.22;;;3.30;;
79308;SDS011;68767;53.078;7.386;2024-01-07T03:47:23;4.90;;;2.35;;
79308;SDS011;68767;53.078;7.386;2024-01-07T03:49:51;7.07;;;2.90;;
79308;SDS011;68767;53.078;7.386;2024-01-07T03:52:18;10.13;;;4.18;;
79308;SDS011;68767;53.078;7.386;2024-01-07T03:54:44;6.32;;;2.85;;
79308;SDS011;68767;53.078;7.386;2024-01-07T03:57:12;6.82;;;3.45;;
79308;SDS011;68767;53.078;7.386;2024-01-07T03:59:38;4.50;;;2.58;;
79308;SDS011;68767;53.078;7.386;2024-01-07T04:02:05;5.97;;;2.90;;
79308;SDS011;68767;53.078;7.386;2024-01-07T04:04:33;8.13;;;2.58;;
79308;SDS011;68767;53.078;7.386;2024-01-07T04:07:00;4.63;;;2.15;;
79308;SDS011;68767;53.078;7.386;2024-01-07T04:09:27;5.18;;;2.47;;
79308;SDS011;68767;53.078;7.386;2024-01-07T04:11:54;3.92;;;1.73;;
79308;SDS011;68767;53.078;7.386;2024-01-07T04:14:21;6.47;;;2.97;;
79308;SDS011;68767;53.078;7.386;2024-01-07T04:16:48;6.35;;;2.65;;
79308;SDS011;68767;53.078;7.386;2024-01-07T04:19:15;4.03;;;2.25;;
79308;SDS011;68767;53.078;7.386;2024-01-07T04:21:45;6.40;;;2.58;;
79308;SDS011;68767;53.078;7.386;2024-01-07T04:24:13;3.35;;;2.03;;
79308;SDS011;68767;53.078;7.386;2024-01-07T04:26:40;4.60;;;2.25;;
79308;SDS011;68767;53.078;7.386;2024-01-07T04:29:07;5.10;;;2.58;;
79308;SDS011;68767;53.078;7.386;2024-01-07T04:31:34;5.95;;;2.72;;
79308;SDS011;68767;53.078;7.386;2024-01-07T04:34:01;3.78;;;2.20;;
79308;SDS011;68767;53.078;7.386;2024-01-07T04:36:29;6.80;;;2.58;;
79308;SDS011;68767;53.078;7.386;2024-01-07T04:38:58;9.30;;;3.00;;
79308;SDS011;68767;53.078;7.386;2024-01-07T04:41:25;5.85;;;2.85;;
79308;SDS011;68767;53.078;7.386;2024-01-07T04:43:52;6.82;;;2.97;;
79308;SDS011;68767;53.078;7.386;2024-01-07T04:46:19;4.78;;;2.53;;
79308;SDS011;68767;53.078;7.386;2024-01-07T04:48:46;6.07;;;2.38;;
79308;SDS011;68767;53.078;7.386;2024-01-07T04:51:14;6.25;;;2.20;;
79308;SDS011;68767;53.078;7.386;2024-01-07T04:53:41;11.23;;;3.08;;
79308;SDS011;68767;53.078;7.386;2024-01-07T04:56:08;9.90;;;2.63;;
79308;SDS011;68767;53.078;7.386;2024-01-07T04:58:35;7.20;;;2.30;;
79308;SDS011;68767;53.078;7.386;2024-01-07T05:01:02;3.55;;;2.00;;
79308;SDS011;68767;53.078;7.386;2024-01-07T05:03:29;4.43;;;2.30;;
79308;SDS011;68767;53.078;7.386;2024-01-07T05:05:56;4.78;;;1.70;;
79308;SDS011;68767;53.078;7.386;2024-01-07T05:08:23;5.93;;;2.08;;
79308;SDS011;68767;53.078;7.386;2024-01-07T05:10:52;3.25;;;1.85;;
79308;SDS011;68767;53.078;7.386;2024-01-07T05:13:19;4.25;;;1.90;;
79308;SDS011;68767;53.078;7.386;2024-01-07T05:15:46;5.63;;;2.20;;
79308;SDS011;68767;53.078;7.386;2024-01-07T05:18:23;5.75;;;2.22;;
79308;SDS011;68767;53.078;7.386;2024-01-07T05:20:51;5.40;;;2.50;;
79308;SDS011;68767;53.078;7.386;2024-01-07T05:23:18;4.20;;;2.13;;
79308;SDS011;68767;53.078;7.386;2024-01-07T05:25:46;5.03;;;2.00;;
79308;SDS011;68767;53.078;7.386;2024-01-07T05:28:13;6.68;;;2.05;;
79308;SDS011;68767;53.078;7.386;2024-01-07T05:30:41;4.93;;;1.90;;
79308;SDS011;68767;53.078;7.386;2024-01-07T05:35:38;4.40;;;2.13;;
79308;SDS011;68767;53.078;7.386;2024-01-07T05:38:04;6.70;;;2.05;;
79308;SDS011;68767;53.078;7.386;2024-01-07T05:40:31;2.85;;;1.60;;
79308;SDS011;68767;53.078;7.386;2024-01-07T05:42:59;5.82;;;2.40;;
79308;SDS011;68767;53.078;7.386;2024-01-07T05:45:26;3.42;;;1.83;;
79308;SDS011;68767;53.078;7.386;2024-01-07T05:47:53;4.45;;;2.25;;
79308;SDS011;68767;53.078;7.386;2024-01-07T05:50:22;4.20;;;1.65;;
79308;SDS011;68767;53.078;7.386;2024-01-07T05:52:49;5.32;;;2.22;;
79308;SDS011;68767;53.078;7.386;2024-01-07T05:55:16;5.03;;;1.98;;
79308;SDS011;68767;53.078;7.386;2024-01-07T05:57:43;3.17;;;1.73;;
79308;SDS011;68767;53.078;7.386;2024-01-07T06:00:11;8.00;;;1.90;;
79308;SDS011;68767;53.078;7.386;2024-01-07T06:02:39;3.28;;;1.80;;
79308;SDS011;68767;53.078;7.386;2024-01-07T06:05:06;5.03;;;2.47;;
79308;SDS011;68767;53.078;7.386;2024-01-07T06:07:34;4.35;;;1.88;;
79308;SDS011;68767;53.078;7.386;2024-01-07T06:10:01;3.85;;;1.70;;
79308;SDS011;68767;53.078;7.386;2024-01-07T06:12:29;4.18;;;1.73;;
79308;SDS011;68767;53.078;7.386;2024-01-07T06:14:56;3.67;;;1.77;;
79308;SDS011;68767;53.078;7.386;2024-01-07T06:17:23;4.18;;;2.13;;
79308;SDS011;68767;53.078;7.386;2024-01-07T06:19:50;3.95;;;2.13;;
79308;SDS011;68767;53.078;7.386;2024-01-07T06:22:17;5.00;;;1.80;;
79308;SDS011;68767;53.078;7.386;2024-01-07T06:24:44;4.95;;;2.15;;
79308;SDS011;68767;53.078;7.386;2024-01-07T06:27:11;3.35;;;1.77;;
79308;SDS011;68767;53.078;7.386;2024-01-07T06:29:38;2.83;;;1.42;;
79308;SDS011;68767;53.078;7.386;2024-01-07T06:32:06;3.95;;;1.60;;
79308;SDS011;68767;53.078;7.386;2024-01-07T06:34:33;5.68;;;1.63;;
79308;SDS011;68767;53.078;7.386;2024-01-07T06:37:00;4.20;;;1.95;;
79308;SDS011;68767;53.078;7.386;2024-01-07T06:39:27;2.40;;;1.52;;
79308;SDS011;68767;53.078;7.386;2024-01-07T06:41:54;3.65;;;1.80;;
79308;SDS011;68767;53.078;7.386;2024-01-07T06:44:21;3.47;;;1.65;;
79308;SDS011;68767;53.078;7.386;2024-01-07T06:46:51;4.50;;;1.80;;
79308;SDS011;68767;53.078;7.386;2024-01-07T06:49:18;3.65;;;1.70;;
79308;SDS011;68767;53.078;7.386;2024-01-07T06:51:46;3.70;;;2.13;;
79308;SDS011;68767;53.078;7.386;2024-01-07T06:54:13;4.15;;;1.90;;
79308;SDS011;68767;53.078;7.386;2024-01-07T06:56:40;4.72;;;1.52;;
79308;SDS011;68767;53.078;7.386;2024-01-07T06:59:07;5.00;;;1.75;;
79308;SDS011;68767;53.078;7.386;2024-01-07T07:01:35;7.32;;;2.22;;
79308;SDS011;68767;53.078;7.386;2024-01-07T07:04:02;6.40;;;2.20;;
79308;SDS011;68767;53.078;7.386;2024-01-07T07:06:29;5.05;;;2.33;;
79308;SDS011;68767;53.078;7.386;2024-01-07T07:08:56;5.88;;;2.10;;
79308;SDS011;68767;53.078;7.386;2024-01-07T07:11:23;4.22;;;2.13;;
79308;SDS011;68767;53.078;7.386;2024-01-07T07:13:50;4.68;;;2.00;;
79308;SDS011;68767;53.078;7.386;2024-01-07T07:16:17;4.78;;;2.22;;
79308;SDS011;68767;53.078;7.386;2024-01-07T07:18:44;8.15;;;2.10;;
79308;SDS011;68767;53.078;7.386;2024-01-07T07:21:11;4.18;;;2.15;;
79308;SDS011;68767;53.078;7.386;2024-01-07T07:23:38;3.83;;;1.63;;
79308;SDS011;68767;53.078;7.386;2024-01-07T07:26:05;7.10;;;1.95;;
79308;SDS011;68767;53.078;7.386;2024-01-07T07:28:33;4.85;;;2.08;;
79308;SDS011;68767;53.078;7.386;2024-01-07T07:31:01;4.82;;;2.20;;
79308;SDS011;68767;53.078;7.386;2024-01-07T07:33:28;5.28;;;2.67;;
79308;SDS011;68767;53.078;7.386;2024-01-07T07:35:55;3.50;;;1.65;;
79308;SDS011;68767;53.078;7.386;2024-01-07T07:38:22;5.18;;;2.28;;
79308;SDS011;68767;53.078;7.386;2024-01-07T07:40:50;4.07;;;1.83;;
79308;SDS011;68767;53.078;7.386;2024-01-07T07:43:19;4.00;;;1.83;;
79308;SDS011;68767;53.078;7.386;2024-01-07T07:45:49;4.18;;;2.22;;
79308;SDS011;68767;53.078;7.386;2024-01-07T07:48:20;4.47;;;1.98;;
79308;SDS011;68767;53.078;7.386;2024-01-07T07:50:47;5.97;;;2.00;;
79308;SDS011;68767;53.078;7.386;2024-01-07T07:53:16;4.88;;;2.13;;
79308;SDS011;68767;53.078;7.386;2024-01-07T07:55:43;3.28;;;1.60;;
79308;SDS011;68767;53.078;7.386;2024-01-07T07:58:10;5.65;;;2.33;;
79308;SDS011;68767;53.078;7.386;2024-01-07T08:00:37;3.53;;;1.75;;
79308;SDS011;68767;53.078;7.386;2024-01-07T08:03:05;4.80;;;2.30;;
79308;SDS011;68767;53.078;7.386;2024-01-07T08:05:32;5.82;;;1.90;;
79308;SDS011;68767;53.078;7.386;2024-01-07T08:07:59;5.43;;;2.20;;
79308;SDS011;68767;53.078;7.386;2024-01-07T08:10:26;3.97;;;2.03;;
79308;SDS011;68767;53.078;7.386;2024-01-07T08:12:55;5.35;;;2.20;;
79308;SDS011;68767;53.078;7.386;2024-01-07T08:15:22;2.63;;;1.50;;
79308;SDS011;68767;53.078;7.386;2024-01-07T08:17:49;3.95;;;2.00;;
79308;SDS011;68767;53.078;7.386;2024-01-07T08:20:18;5.22;;;2.05;;
79308;SDS011;68767;53.078;7.386;2024-01-07T08:22:46;4.63;;;1.50;;
79308;SDS011;68767;53.078;7.386;2024-01-07T08:25:13;3.50;;;1.42;;
79308;SDS011;68767;53.078;7.386;2024-01-07T08:27:41;3.05;;;1.50;;
79308;SDS011;68767;53.078;7.386;2024-01-07T08:30:08;4.78;;;1.65;;
79308;SDS011;68767;53.078;7.386;2024-01-07T08:32:35;3.92;;;1.65;;
79308;SDS011;68767;53.078;7.386;2024-01-07T08:35:02;3.15;;;1.60;;
79308;SDS011;68767;53.078;7.386;2024-01-07T08:37:30;3.83;;;1.75;;
79308;SDS011;68767;53.078;7.386;2024-01-07T08:39:57;5.60;;;1.77;;
79308;SDS011;68767;53.078;7.386;2024-01-07T08:42:24;2.60;;;1.40;;
79308;SDS011;68767;53.078;7.386;2024-01-07T08:44:55;2.80;;;1.60;;
79308;SDS011;68767;53.078;7.386;2024-01-07T08:47:22;6.13;;;2.00;;
79308;SDS011;68767;53.078;7.386;2024-01-07T08:49:49;4.80;;;1.70;;
79308;SDS011;68767;53.078;7.386;2024-01-07T08:52:20;7.43;;;2.20;;
79308;SDS011;68767;53.078;7.386;2024-01-07T08:54:47;5.55;;;2.17;;
79308;SDS011;68767;53.078;7.386;2024-01-07T08:57:14;3.38;;;1.55;;
79308;SDS011;68767;53.078;7.386;2024-01-07T08:59:41;8.52;;;1.95;;
79308;SDS011;68767;53.078;7.386;2024-01-07T09:02:08;5.72;;;1.77;;
79308;SDS011;68767;53.078;7.386;2024-01-07T09:04:35;4.03;;;2.10;;
79308;SDS011;68767;53.078;7.386;2024-01-07T09:07:02;4.18;;;1.85;;
79308;SDS011;68767;53.078;7.386;2024-01-07T09:09:29;3.83;;;2.05;;
79308;SDS011;68767;53.078;7.386;2024-01-07T09:11:56;4.22;;;2.13;;
79308;SDS011;68767;53.078;7.386;2024-01-07T09:14:25;3.70;;;1.70;;
79308;SDS011;68767;53.078;7.386;2024-01-07T09:16:52;9.95;;;2.22;;
79308;SDS011;68767;53.078;7.386;2024-01-07T09:19:20;4.07;;;2.00;;
79308;SDS011;68767;53.078;7.386;2024-01-07T09:21:47;5.47;;;2.40;;
79308;SDS011;68767;53.078;7.386;2024-01-07T09:24:14;3.55;;;1.67;;
79308;SDS011;68767;53.078;7.386;2024-01-07T09:26:41;4.47;;;2.15;;
79308;SDS011;68767;53.078;7.386;2024-01-07T09:29:08;6.20;;;2.80;;
79308;SDS011;68767;53.078;7.386;2024-01-07T09:31:35;5.65;;;2.40;;
79308;SDS011;68767;53.078;7.386;2024-01-07T09:34:03;4.57;;;2.30;;
79308;SDS011;68767;53.078;7.386;2024-01-07T09:36:30;5.07;;;2.38;;
79308;SDS011;68767;53.078;7.386;2024-01-07T09:38:57;4.00;;;2.03;;
79308;SDS011;68767;53.078;7.386;2024-01-07T09:41:25;4.30;;;2.45;;
79308;SDS011;68767;53.078;7.386;2024-01-07T09:43:52;3.95;;;1.92;;
79308;SDS011;68767;53.078;7.386;2024-01-07T09:46:20;7.30;;;2.22;;
79308;SDS011;68767;53.078;7.386;2024-01-07T09:48:49;3.45;;;1.80;;
79308;SDS011;68767;53.078;7.386;2024-01-07T09:51:16;4.85;;;1.95;;
79308;SDS011;68767;53.078;7.386;2024-01-07T09:53:49;2.88;;;1.67;;
79308;SDS011;68767;53.078;7.386;2024-01-07T09:56:25;4.35;;;1.85;;
79308;SDS011;68767;53.078;7.386;2024-01-07T09:58:53;3.75;;;1.67;;
79308;SDS011;68767;53.078;7.386;2024-01-07T10:01:20;3.70;;;2.03;;
79308;SDS011;68767;53.078;7.386;2024-01-07T10:03:47;2.47;;;1.63;;
79308;SDS011;68767;53.078;7.386;2024-01-07T10:06:17;8.57;;;2.10;;
79308;SDS011;68767;53.078;7.386;2024-01-07T10:08:46;3.42;;;1.60;;
79308;SDS011;68767;53.078;7.386;2024-01-07T10:11:16;6.05;;;2.22;;
79308;SDS011;68767;53.078;7.386;2024-01-07T10:13:46;2.65;;;1.48;;
79308;SDS011;68767;53.078;7.386;2024-01-07T10:16:18;6.35;;;1.90;;
79308;SDS011;68767;53.078;7.386;2024-01-07T10:18:45;3.47;;;1.67;;
79308;SDS011;68767;53.078;7.386;2024-01-07T10:21:12;5.25;;;1.98;;
79308;SDS011;68767;53.078;7.386;2024-01-07T10:23:39;3.30;;;1.60;;
79308;SDS011;68767;53.078;7.386;2024-01-07T10:26:06;6.70;;;2.40;;
79308;SDS011;68767;53.078;7.386;2024-01-07T10:28:48;2.97;;;1.77;;
79308;SDS011;68767;53.078;7.386;2024-01-07T10:31:16;6.65;;;2.13;;
79308;SDS011;68767;53.078;7.386;2024-01-07T10:33:43;6.22;;;2.60;;
79308;SDS011;68767;53.078;7.386;2024-01-07T10:36:11;3.47;;;2.40;;
79308;SDS011;68767;53.078;7.386;2024-01-07T10:38:38;6.20;;;2.40;;
79308;SDS011;68767;53.078;7.386;2024-01-07T10:41:12;4.72;;;2.22;;
79308;SDS011;68767;53.078;7.386;2024-01-07T10:43:48;6.72;;;2.70;;
79308;SDS011;68767;53.078;7.386;2024-01-07T10:46:16;7.15;;;2.35;;
79308;SDS011;68767;53.078;7.386;2024-01-07T10:48:50;10.45;;;3.33;;
79308;SDS011;68767;53.078;7.386;2024-01-07T10:51:20;4.93;;;2.97;;
79308;SDS011;68767;53.078;7.386;2024-01-07T10:53:52;7.88;;;3.55;;
79308;SDS011;68767;53.078;7.386;2024-01-07T10:56:22;6.28;;;2.85;;
79308;SDS011;68767;53.078;7.386;2024-01-07T10:58:54;10.40;;;3.95;;
79308;SDS011;68767;53.078;7.386;2024-01-07T11:01:21;6.70;;;2.88;;
79308;SDS011;68767;53.078;7.386;2024-01-07T11:06:43;8.07;;;3.45;;
79308;SDS011;68767;53.078;7.386;2024-01-07T11:11:56;6.00;;;3.15;;
79308;SDS011;68767;53.078;7.386;2024-01-07T11:19:51;6.07;;;2.90;;
79308;SDS011;68767;53.078;7.386;2024-01-07T11:27:23;7.55;;;3.15;;
79308;SDS011;68767;53.078;7.386;2024-01-07T11:29:55;14.40;;;3.13;;
79308;SDS011;68767;53.078;7.386;2024-01-07T11:32:24;13.18;;;3.85;;
79308;SDS011;68767;53.078;7.386;2024-01-07T11:34:55;6.75;;;3.70;;
79308;SDS011;68767;53.078;7.386;2024-01-07T11:37:25;9.10;;;3.17;;
79308;SDS011;68767;53.078;7.386;2024-01-07T11:39:56;7.80;;;3.10;;
79308;SDS011;68767;53.078;7.386;2024-01-07T11:42:27;7.72;;;3.63;;
79308;SDS011;68767;53.078;7.386;2024-01-07T11:44:54;8.73;;;3.45;;
79308;SDS011;68767;53.078;7.386;2024-01-07T11:47:22;8.68;;;3.35;;
79308;SDS011;68767;53.078;7.386;2024-01-07T11:49:51;8.88;;;3.83;;
79308;SDS011;68767;53.078;7.386;2024-01-07T11:52:18;9.30;;;4.05;;
79308;SDS011;68767;53.078;7.386;2024-01-07T11:54:47;11.07;;;3.85;;
79308;SDS011;68767;53.078;7.386;2024-01-07T11:57:14;6.82;;;2.78;;
79308;SDS011;68767;53.078;7.386;2024-01-07T11:59:41;8.52;;;3.47;;
79308;SDS011;68767;53.078;7.386;2024-01-07T12:02:10;11.75;;;4.65;;
79308;SDS011;68767;53.078;7.386;2024-01-07T12:04:38;15.40;;;3.60;;
79308;SDS011;68767;53.078;7.386;2024-01-07T12:07:05;10.07;;;3.75;;
79308;SDS011;68767;53.078;7.386;2024-01-07T12:09:33;9.85;;;3.75;;
79308;SDS011;68767;53.078;7.386;2024-01-07T12:12:00;7.75;;;3.40;;
79308;SDS011;68767;53.078;7.386;2024-01-07T12:14:27;10.48;;;4.13;;
79308;SDS011;68767;53.078;7.386;2024-01-07T12:16:55;8.85;;;3.28;;
79308;SDS011;68767;53.078;7.386;2024-01-07T12:19:22;12.40;;;4.13;;
79308;SDS011;68767;53.078;7.386;2024-01-07T12:22:01;6.00;;;3.72;;
79308;SDS011;68767;53.078;7.386;2024-01-07T12:24:29;8.10;;;3.72;;
79308;SDS011;68767;53.078;7.386;2024-01-07T12:26:56;7.53;;;3.42;;
79308;SDS011;68767;53.078;7.386;2024-01-07T12:29:23;10.40;;;3.60;;
79308;SDS011;68767;53.078;7.386;2024-01-07T12:31:51;8.18;;;3.30;;
79308;SDS011;68767;53.078;7.386;2024-01-07T12:34:20;5.55;;;3.15;;
79308;SDS011;68767;53.078;7.386;2024-01-07T12:36:50;7.80;;;3.30;;
79308;SDS011;68767;53.078;7.386;2024-01-07T12:39:18;9.48;;;3.60;;
79308;SDS011;68767;53.078;7.386;2024-01-07T12:41:45;7.43;;;3.47;;
79308;SDS011;68767;53.078;7.386;2024-01-07T12:44:13;7.60;;;3.33;;
79308;SDS011;68767;53.078;7.386;2024-01-07T12:46:41;8.20;;;3.42;;
79308;SDS011;68767;53.078;7.386;2024-01-07T12:49:08;7.05;;;3.38;;
79308;SDS011;68767;53.078;7.386;2024-01-07T12:51:36;6.82;;;3.33;;
79308;SDS011;68767;53.078;7.386;2024-01-07T12:54:03;7.50;;;3.50;;
79308;SDS011;68767;53.078;7.386;2024-01-07T12:56:30;4.60;;;2.80;;
79308;SDS011;68767;53.078;7.386;2024-01-07T12:58:57;4.57;;;3.10;;
79308;SDS011;68767;53.078;7.386;2024-01-07T13:01:24;8.20;;;3.13;;
79308;SDS011;68767;53.078;7.386;2024-01-07T13:03:52;7.60;;;3.55;;
79308;SDS011;68767;53.078;7.386;2024-01-07T13:06:19;6.15;;;3.33;;
79308;SDS011;68767;53.078;7.386;2024-01-07T13:08:46;6.38;;;3.53;;
79308;SDS011;68767;53.078;7.386;2024-01-07T13:11:13;7.80;;;3.15;;
79308;SDS011;68767;53.078;7.386;2024-01-07T13:13:43;8.43;;;3.33;;
79308;SDS011;68767;53.078;7.386;2024-01-07T13:16:10;10.35;;;3.75;;
79308;SDS011;68767;53.078;7.386;2024-01-07T13:18:38;7.88;;;3.53;;
79308;SDS011;68767;53.078;7.386;2024-01-07T13:21:05;8.65;;;3.50;;
79308;SDS011;68767;53.078;7.386;2024-01-07T13:23:33;7.18;;;3.40;;
79308;SDS011;68767;53.078;7.386;2024-01-07T13:26:00;12.93;;;4.32;;
79308;SDS011;68767;53.078;7.386;2024-01-07T13:28:32;11.10;;;4.45;;
79308;SDS011;68767;53.078;7.386;2024-01-07T13:30:59;8.10;;;3.03;;
79308;SDS011;68767;53.078;7.386;2024-01-07T13:33:27;8.68;;;2.67;;
79308;SDS011;68767;53.078;7.386;2024-01-07T13:35:54;7.45;;;2.78;;
79308;SDS011;68767;53.078;7.386;2024-01-07T13:38:21;12.13;;;4.05;;
79308;SDS011;68767;53.078;7.386;2024-01-07T13:40:48;6.80;;;3.25;;
79308;SDS011;68767;53.078;7.386;2024-01-07T13:43:16;5.65;;;2.70;;
79308;SDS011;68767;53.078;7.386;2024-01-07T13:45:43;11.63;;;3.65;;
79308;SDS011;68767;53.078;7.386;2024-01-07T13:48:10;7.70;;;3.45;;
79308;SDS011;68767;53.078;7.386;2024-01-07T13:50:37;7.65;;;3.30;;
79308;SDS011;68767;53.078;7.386;2024-01-07T13:53:04;6.50;;;3.85;;
79308;SDS011;68767;53.078;7.386;2024-01-07T13:55:31;8.63;;;3.63;;
79308;SDS011;68767;53.078;7.386;2024-01-07T13:57:58;9.60;;;3.90;;
79308;SDS011;68767;53.078;7.386;2024-01-07T14:00:26;10.57;;;4.55;;
79308;SDS011;68767;53.078;7.386;2024-01-07T14:02:53;10.20;;;4.28;;
79308;SDS011;68767;53.078;7.386;2024-01-07T14:05:20;12.52;;;4.53;;
79308;SDS011;68767;53.078;7.386;2024-01-07T14:07:47;7.45;;;3.55;;
79308;SDS011;68767;53.078;7.386;2024-01-07T14:10:14;7.05;;;3.65;;
79308;SDS011;68767;53.078;7.386;2024-01-07T14:12:45;9.05;;;2.70;;
79308;SDS011;68767;53.078;7.386;2024-01-07T14:15:11;8.70;;;3.47;;
79308;SDS011;68767;53.078;7.386;2024-01-07T14:17:38;7.60;;;3.65;;
79308;SDS011;68767;53.078;7.386;2024-01-07T14:20:06;9.63;;;3.10;;
79308;SDS011;68767;53.078;7.386;2024-01-07T14:22:34;9.02;;;3.60;;
79308;SDS011;68767;53.078;7.386;2024-01-07T14:25:02;6.38;;;2.78;;
79308;SDS011;68767;53.078;7.386;2024-01-07T14:27:30;7.13;;;3.25;;
79308;SDS011;68767;53.078;7.386;2024-01-07T14:29:57;7.40;;;2.72;;
79308;SDS011;68767;53.078;7.386;2024-01-07T14:32:24;9.75;;;2.90;;
79308;SDS011;68767;53.078;7.386;2024-01-07T14:34:51;7.97;;;2.78;;
79308;SDS011;68767;53.078;7.386;2024-01-07T14:37:18;9.10;;;3.08;;
79308;SDS011;68767;53.078;7.386;2024-01-07T14:39:46;7.35;;;3.25;;
79308;SDS011;68767;53.078;7.386;2024-01-07T14:42:13;9.05;;;3.53;;
79308;SDS011;68767;53.078;7.386;2024-01-07T14:44:41;7.45;;;3.05;;
79308;SDS011;68767;53.078;7.386;2024-01-07T14:47:16;9.65;;;4.10;;
79308;SDS011;68767;53.078;7.386;2024-01-07T14:49:44;8.10;;;3.70;;
79308;SDS011;68767;53.078;7.386;2024-01-07T14:52:12;10.07;;;3.35;;
79308;SDS011;68767;53.078;7.386;2024-01-07T14:54:39;9.20;;;3.60;;
79308;SDS011;68767;53.078;7.386;2024-01-07T14:57:06;7.68;;;3.60;;
79308;SDS011;68767;53.078;7.386;2024-01-07T14:59:36;5.55;;;2.83;;
79308;SDS011;68767;53.078;7.386;2024-01-07T15:02:03;9.85;;;3.55;;
79308;SDS011;68767;53.078;7.386;2024-01-07T15:04:31;9.00;;;3.45;;
79308;SDS011;68767;53.078;7.386;2024-01-07T15:06:58;13.45;;;3.50;;